Time;durP1;ratioP1;P1;durP2;ratioP2;P2;SDS_P1;SDS_P2;PMS_P1;PMS_P2;Temp;Humidity;BMP_temperature;BMP_pressure;BME280_temperature;BME280_humidity;BME280_pressure;Samples;Min_cycle;Max_cycle;Signal;HPM_P1;HPM_P2
2022/12/30 00:00:25;;;;;;;;;;;;;;;;;;1042341;28;3244;-54
2022/12/30 00:01:17;;;;;;;;;;;;;;;;;;1042993;28;4099;-53
2022/12/30 00:01:47;;;;;;;;;;;;;;;;;;1042466;28;3963;-54
2022/12/30 00:02:17;;;;;;;;;;;;;;;;;;1044963;28;2927;-51
2022/12/30 00:02:47;;;;;;;;;;;;;;;;;;1043603;28;3875;-50
2022/12/30 00:03:18;;;;;;;;;;;;;;;;;;1045487;28;1722;-55
2022/12/30 00:03:49;;;;;;;;;;;;;;;;;;1043993;28;3970;-47
2022/12/30 00:04:19;;;;;;;;;;;;;;;;;;1044193;28;2654;-52
2022/12/30 00:04:49;;;;;;;;;;;;;;;;;;1045579;28;4052;-51
2022/12/30 00:05:19;;;;;;;;;;;;;;;;;;1044896;28;2022;-53
2022/12/30 00:05:50;;;;;;;;;;;;;;;;;;1042705;28;4243;-54
2022/12/30 00:06:22;;;;;;;;;;;;;;;;;;1041772;28;3068;-53
2022/12/30 00:06:52;;;;;;;;;;;;;;;;;;1044511;28;3889;-52
2022/12/30 00:07:22;;;;;;;;;;;;;;;;;;1041959;28;3115;-54
2022/12/30 00:07:52;;;;;;;;;;;;;;;;;;1042847;28;4056;-54
2022/12/30 00:09:11;;;;;;;;;;;;;;;;;;1043843;28;3817;-54
2022/12/30 00:09:42;;;;;;;;;;;;;;;;;;1043219;28;3895;-52
2022/12/30 00:10:19;;;;;;;;;;;;;;;;;;1046182;28;2683;-51
2022/12/30 00:11:03;;;;;;;;;;;;;;;;;;1048040;28;3771;-49
2022/12/30 00:11:34;;;;;;;;;;;;;;;;;;1045775;28;3001;-52
2022/12/30 00:33:06;;;;;;;;;;;;;;;;;;1048930;28;3841;-55
2022/12/30 00:33:09;;;;;;;;;;;;;;;;;;1048124;28;4106;-51
2022/12/30 00:33:52;;;;;;;;;;;;;;;;;;1049370;28;4402;-51
2022/12/30 00:34:36;;;;;;;;;;;;;;;;;;1048925;28;2774;-53
2022/12/30 00:35:06;;;;;;;;;;;;;;;;;;1048709;28;4091;-52
2022/12/30 00:35:38;;;;;;;;;;;;;;;;;;1048258;28;2393;-49
2022/12/30 00:36:08;;;;;;;;;;;;;;;;;;1048607;28;3845;-50
2022/12/30 00:36:38;;;;;;;;;;;;;;;;;;1050440;28;4038;-54
2022/12/30 00:37:08;;;;;;;;;;;;;;;;;;1049390;28;2019;-52
2022/12/30 00:37:39;;;;;;;;;;;;;;;;;;1048542;28;3967;-51
2022/12/30 00:38:09;;;;;;;;;;;;;;;;;;1047506;28;2167;-52
2022/12/30 00:38:39;;;;;;;;;;;;;;;;;;1043741;28;4184;-51
2022/12/30 00:39:09;;;;;;;;;;;;;;;;;;1046447;28;3003;-52
2022/12/30 00:39:40;;;;;;;;;;;;;;;;;;1049092;28;4411;-50
2022/12/30 00:40:10;;;;;;;;;;;;;;;;;;1047853;28;2733;-53
2022/12/30 00:43:07;;;;;;;;;;;;;;;;;;1046462;28;4410;-53
2022/12/30 00:43:08;;;;;;;;;;;;;;;;;;1046850;28;3949;-52
2022/12/30 00:43:39;;;;;;;;;;;;;;;;;;1049257;28;4253;-55
2022/12/30 00:44:09;;;;;;;;;;;;;;;;;;1046770;28;2145;-49
2022/12/30 00:44:39;;;;;;;;;;;;;;;;;;1049713;28;4412;-51
2022/12/30 00:45:09;;;;;;;;;;;;;;;;;;1049405;28;2424;-53
2022/12/30 00:45:41;;;;;;;;;;;;;;;;;;1049268;28;4355;-50
2022/12/30 00:46:12;;;;;;;;;;;;;;;;;;1046754;28;1857;-52
2022/12/30 00:46:43;;;;;;;;;;;;;;;;;;1042070;28;4359;-49
2022/12/30 00:47:13;;;;;;;;;;;;;;;;;;1041756;28;1560;-55
2022/12/30 00:47:44;;;;;;;;;;;;;;;;;;1042516;28;4384;-50
2022/12/30 00:56:24;;;;;;;;;;;;;;;;;;1047040;28;3969;-50
2022/12/30 00:56:54;;;;;;;;;;;;;;;;;;1046848;28;3954;-49
2022/12/30 00:57:24;;;;;;;;;;;;;;;;;;1046975;28;1695;-55
2022/12/30 00:57:54;;;;;;;;;;;;;;;;;;1046460;28;3896;-52
2022/12/30 00:58:25;;;;;;;;;;;;;;;;;;1047768;28;2657;-54
2022/12/30 00:58:55;;;;;;;;;;;;;;;;;;1047583;28;4033;-52
2022/12/30 00:59:25;;;;;;;;;;;;;;;;;;1048741;28;2882;-51
2022/12/30 00:59:55;;;;;;;;;;;;;;;;;;1048146;28;3967;-52
2022/12/30 01:00:26;;;;;;;;;;;;;;;;;;1049024;28;2316;-52
2022/12/30 01:00:56;;;;;;;;;;;;;;;;;;1048149;28;4419;-53
2022/12/30 01:01:26;;;;;;;;;;;;;;;;;;1047877;28;2822;-50
2022/12/30 01:01:56;;;;;;;;;;;;;;;;;;1048230;28;4181;-50
2022/12/30 01:02:27;;;;;;;;;;;;;;;;;;1047957;28;2033;-52
2022/12/30 01:02:57;;;;;;;;;;;;;;;;;;1048390;28;4544;-55
2022/12/30 01:03:27;;;;;;;;;;;;;;;;;;1049349;28;1880;-54
2022/12/30 01:03:58;;;;;;;;;;;;;;;;;;1047544;28;4054;-49
2022/12/30 01:04:28;;;;;;;;;;;;;;;;;;1048392;28;3148;-53
2022/12/30 01:04:58;;;;;;;;;;;;;;;;;;1050190;28;4261;-49
2022/12/30 01:05:28;;;;;;;;;;;;;;;;;;1048466;28;2243;-54
2022/12/30 01:06:04;;;;;;;;;;;;;;;;;;1047526;28;4017;-52
2022/12/30 01:06:35;;;;;;;;;;;;;;;;;;1047572;28;2035;-54
2022/12/30 01:07:05;;;;;;;;;;;;;;;;;;1047664;28;3768;-51
2022/12/30 01:07:36;;;;;;;;;;;;;;;;;;1048079;28;2170;-54
2022/12/30 01:08:06;;;;;;;;;;;;;;;;;;1045115;28;3819;-50
2022/12/30 01:08:37;;;;;;;;;;;;;;;;;;1040762;28;2813;-52
2022/12/30 01:09:07;;;;;;;;;;;;;;;;;;1040511;28;3769;-50
2022/12/30 01:09:37;;;;;;;;;;;;;;;;;;1040760;28;4059;-53
2022/12/30 01:10:16;;;;;;;;;;;;;;;;;;1042505;28;2244;-55
2022/12/30 01:10:54;;;;;;;;;;;;;;;;;;1042548;28;3969;-50
2022/12/30 01:11:31;;;;;;;;;;;;;;;;;;1048221;28;2834;-56
2022/12/30 01:12:07;;;;;;;;;;;;;;;;;;1044302;28;4135;-53
2022/12/30 01:12:37;;;;;;;;;;;;;;;;;;1044075;28;4228;-51
2022/12/30 01:13:08;;;;;;;;;;;;;;;;;;1041895;28;3122;-54
2022/12/30 01:13:52;;;;;;;;;;;;;;;;;;1043862;28;4018;-54
2022/12/30 01:14:22;;;;;;;;;;;;;;;;;;1043162;28;2849;-49
2022/12/30 01:14:53;;;;;;;;;;;;;;;;;;1043902;28;3921;-51
2022/12/30 01:15:24;;;;;;;;;;;;;;;;;;1042200;28;2896;-52
2022/12/30 01:15:54;;;;;;;;;;;;;;;;;;1043214;28;3865;-49
2022/12/30 01:16:24;;;;;;;;;;;;;;;;;;1044330;28;2878;-51
2022/12/30 01:16:55;;;;;;;;;;;;;;;;;;1043868;28;3746;-55
2022/12/30 01:17:26;;;;;;;;;;;;;;;;;;1043845;28;2327;-53
2022/12/30 01:17:57;;;;;;;;;;;;;;;;;;1042309;28;4657;-52
2022/12/30 01:18:27;;;;;;;;;;;;;;;;;;1042053;28;2492;-52
2022/12/30 01:18:57;;;;;;;;;;;;;;;;;;1045884;28;3881;-50
2022/12/30 01:19:27;;;;;;;;;;;;;;;;;;1045339;28;2174;-53
2022/12/30 01:19:58;;;;;;;;;;;;;;;;;;1044097;28;4428;-53
2022/12/30 01:20:28;;;;;;;;;;;;;;;;;;1045912;28;2147;-55
2022/12/30 01:20:59;;;;;;;;;;;;;;;;;;1042949;28;3845;-50
2022/12/30 01:21:29;;;;;;;;;;;;;;;;;;1044756;28;3013;-53
2022/12/30 01:22:00;;;;;;;;;;;;;;;;;;1041965;28;3855;-51
2022/12/30 01:22:30;;;;;;;;;;;;;;;;;;1043434;28;2249;-50
2022/12/30 01:23:00;;;;;;;;;;;;;;;;;;1043659;28;4068;-53
2022/12/30 01:23:30;;;;;;;;;;;;;;;;;;1047151;28;2840;-51
2022/12/30 01:24:01;;;;;;;;;;;;;;;;;;1047549;28;4349;-52
2022/12/30 01:24:31;;;;;;;;;;;;;;;;;;1049654;28;1998;-55
2022/12/30 01:25:08;;;;;;;;;;;;;;;;;;1044428;28;3756;-53
2022/12/30 01:25:40;;;;;;;;;;;;;;;;;;1042959;28;3901;-51
2022/12/30 01:26:10;;;;;;;;;;;;;;;;;;1043899;28;2944;-52
2022/12/30 01:26:40;;;;;;;;;;;;;;;;;;1045174;28;4051;-48
2022/12/30 01:27:11;;;;;;;;;;;;;;;;;;1044046;28;1934;-53
2022/12/30 01:27:41;;;;;;;;;;;;;;;;;;1045083;28;3997;-54
2022/12/30 01:28:11;;;;;;;;;;;;;;;;;;1044993;28;2620;-52
2022/12/30 01:28:42;;;;;;;;;;;;;;;;;;1041341;28;4084;-56
2022/12/30 01:29:14;;;;;;;;;;;;;;;;;;1044489;28;3466;-50
2022/12/30 01:29:45;;;;;;;;;;;;;;;;;;1042903;28;4117;-51
2022/12/30 01:30:15;;;;;;;;;;;;;;;;;;1042693;28;4183;-51
2022/12/30 01:30:45;;;;;;;;;;;;;;;;;;1044163;28;4047;-53
2022/12/30 01:31:16;;;;;;;;;;;;;;;;;;1043572;28;2511;-53
2022/12/30 01:31:46;;;;;;;;;;;;;;;;;;1043127;28;3786;-52
2022/12/30 01:32:18;;;;;;;;;;;;;;;;;;1044018;28;2536;-50
2022/12/30 01:32:48;;;;;;;;;;;;;;;;;;1042895;28;3928;-49
2022/12/30 01:33:18;;;;;;;;;;;;;;;;;;1043106;28;2157;-53
2022/12/30 01:33:48;;;;;;;;;;;;;;;;;;1042473;28;4039;-50
2022/12/30 01:34:18;;;;;;;;;;;;;;;;;;1043900;28;2575;-54
2022/12/30 01:34:51;;;;;;;;;;;;;;;;;;1046439;28;4191;-49
2022/12/30 01:35:22;;;;;;;;;;;;;;;;;;1043160;28;2660;-55
2022/12/30 01:35:52;;;;;;;;;;;;;;;;;;1044278;28;4402;-55
2022/12/30 01:36:22;;;;;;;;;;;;;;;;;;1043015;28;2881;-54
2022/12/30 01:36:53;;;;;;;;;;;;;;;;;;1043882;28;4376;-51
2022/12/30 01:37:23;;;;;;;;;;;;;;;;;;1045270;28;2509;-51
2022/12/30 01:37:53;;;;;;;;;;;;;;;;;;1042469;28;3782;-54
2022/12/30 01:38:24;;;;;;;;;;;;;;;;;;1043827;28;2785;-52
2022/12/30 01:38:54;;;;;;;;;;;;;;;;;;1045955;28;4122;-55
2022/12/30 01:39:24;;;;;;;;;;;;;;;;;;1046374;28;1861;-54
2022/12/30 01:39:54;;;;;;;;;;;;;;;;;;1044736;28;3775;-51
2022/12/30 01:40:25;;;;;;;;;;;;;;;;;;1041862;28;2921;-54
2022/12/30 01:40:55;;;;;;;;;;;;;;;;;;1046370;28;4550;-55
2022/12/30 01:41:25;;;;;;;;;;;;;;;;;;1043851;28;2816;-55
2022/12/30 01:41:56;;;;;;;;;;;;;;;;;;1043176;28;4598;-54
2022/12/30 01:42:28;;;;;;;;;;;;;;;;;;1043481;28;3197;-52
2022/12/30 01:42:58;;;;;;;;;;;;;;;;;;1042863;28;3932;-48
2022/12/30 01:43:48;;;;;;;;;;;;;;;;;;1044989;28;2901;-51
2022/12/30 01:44:36;;;;;;;;;;;;;;;;;;1043353;28;3835;-52
2022/12/30 01:45:22;;;;;;;;;;;;;;;;;;1043061;28;4264;-48
2022/12/30 01:45:53;;;;;;;;;;;;;;;;;;1042900;28;3976;-52
2022/12/30 01:46:26;;;;;;;;;;;;;;;;;;1044377;28;2814;-55
2022/12/30 01:46:56;;;;;;;;;;;;;;;;;;1042682;28;4141;-54
2022/12/30 01:47:35;;;;;;;;;;;;;;;;;;1045819;28;1775;-51
2022/12/30 01:48:34;;;;;;;;;;;;;;;;;;1042619;28;3886;-53
2022/12/30 01:49:06;;;;;;;;;;;;;;;;;;1032673;28;3839;-53
2022/12/30 01:49:39;;;;;;;;;;;;;;;;;;1042637;28;1742;-52
2022/12/30 01:50:12;;;;;;;;;;;;;;;;;;1043256;28;4116;-54
2022/12/30 01:50:48;;;;;;;;;;;;;;;;;;1044859;28;3978;-56
2022/12/30 01:51:21;;;;;;;;;;;;;;;;;;1044446;28;2936;-51
2022/12/30 01:51:52;;;;;;;;;;;;;;;;;;1043022;28;4090;-56
2022/12/30 01:52:23;;;;;;;;;;;;;;;;;;1043128;28;2693;-56
2022/12/30 01:52:53;;;;;;;;;;;;;;;;;;1045291;28;3782;-53
2022/12/30 01:53:25;;;;;;;;;;;;;;;;;;1043968;28;2080;-53
2022/12/30 01:53:57;;;;;;;;;;;;;;;;;;1045365;28;4094;-53
2022/12/30 01:54:27;;;;;;;;;;;;;;;;;;1041906;28;2540;-51
2022/12/30 01:55:01;;;;;;;;;;;;;;;;;;1044497;28;3879;-49
2022/12/30 01:55:35;;;;;;;;;;;;;;;;;;1043894;28;2099;-56
2022/12/30 01:56:05;;;;;;;;;;;;;;;;;;1042240;28;4040;-53
2022/12/30 01:56:37;;;;;;;;;;;;;;;;;;1043603;28;1819;-52
2022/12/30 01:57:07;;;;;;;;;;;;;;;;;;1042752;28;4042;-54
2022/12/30 01:57:39;;;;;;;;;;;;;;;;;;1041341;28;3874;-54
2022/12/30 01:58:11;;;;;;;;;;;;;;;;;;1045582;28;1729;-52
2022/12/30 01:58:44;;;;;;;;;;;;;;;;;;1041807;28;4063;-51
2022/12/30 01:59:15;;;;;;;;;;;;;;;;;;1044709;28;2877;-52
2022/12/30 01:59:46;;;;;;;;;;;;;;;;;;1044751;28;3957;-52
2022/12/30 02:00:17;;;;;;;;;;;;;;;;;;1045567;28;3200;-52
2022/12/30 02:00:47;;;;;;;;;;;;;;;;;;1044664;28;4047;-57
2022/12/30 02:01:18;;;;;;;;;;;;;;;;;;1046302;28;2466;-50
2022/12/30 02:01:49;;;;;;;;;;;;;;;;;;1043383;28;4414;-53
2022/12/30 02:02:19;;;;;;;;;;;;;;;;;;1041207;28;2829;-51
2022/12/30 02:02:51;;;;;;;;;;;;;;;;;;1044825;28;5223;-52
2022/12/30 02:03:23;;;;;;;;;;;;;;;;;;1044018;28;2630;-51
2022/12/30 02:04:15;;;;;;;;;;;;;;;;;;1043034;28;4041;-54
2022/12/30 02:04:45;;;;;;;;;;;;;;;;;;1044710;28;4070;-49
2022/12/30 02:05:17;;;;;;;;;;;;;;;;;;1043981;28;2892;-52
2022/12/30 02:05:47;;;;;;;;;;;;;;;;;;1043043;28;4151;-54
2022/12/30 02:06:20;;;;;;;;;;;;;;;;;;1043068;28;2145;-54
2022/12/30 02:06:58;;;;;;;;;;;;;;;;;;1042856;28;4106;-51
2022/12/30 02:07:32;;;;;;;;;;;;;;;;;;1045179;28;2856;-53
2022/12/30 02:08:06;;;;;;;;;;;;;;;;;;1043220;28;3834;-55
2022/12/30 02:08:37;;;;;;;;;;;;;;;;;;1044693;28;2935;-51
2022/12/30 02:09:07;;;;;;;;;;;;;;;;;;1044164;28;3929;-55
2022/12/30 02:09:38;;;;;;;;;;;;;;;;;;1044690;28;3928;-52
2022/12/30 02:10:08;;;;;;;;;;;;;;;;;;1044104;28;2387;-52
2022/12/30 02:10:56;;;;;;;;;;;;;;;;;;1044739;28;4111;-49
2022/12/30 02:11:34;;;;;;;;;;;;;;;;;;1043474;28;2999;-52
2022/12/30 02:12:05;;;;;;;;;;;;;;;;;;1043114;28;4265;-53
2022/12/30 02:12:35;;;;;;;;;;;;;;;;;;1042323;28;3272;-52
2022/12/30 02:13:05;;;;;;;;;;;;;;;;;;1041875;28;4327;-55
2022/12/30 02:13:36;;;;;;;;;;;;;;;;;;1043714;28;2314;-51
2022/12/30 02:14:06;;;;;;;;;;;;;;;;;;1042207;28;3873;-55
2022/12/30 02:14:37;;;;;;;;;;;;;;;;;;1046017;28;2041;-54
2022/12/30 02:15:08;;;;;;;;;;;;;;;;;;1041656;28;3845;-56
2022/12/30 02:15:51;;;;;;;;;;;;;;;;;;1039885;28;3841;-50
2022/12/30 02:16:26;;;;;;;;;;;;;;;;;;1039792;28;2808;-53
2022/12/30 02:16:59;;;;;;;;;;;;;;;;;;1041103;28;3955;-50
2022/12/30 02:17:48;;;;;;;;;;;;;;;;;;1042502;28;1698;-56
2022/12/30 02:18:21;;;;;;;;;;;;;;;;;;1043209;28;4435;-53
2022/12/30 02:18:55;;;;;;;;;;;;;;;;;;1043961;28;3802;-53
2022/12/30 02:19:25;;;;;;;;;;;;;;;;;;1043503;28;2842;-56
2022/12/30 02:20:22;;;;;;;;;;;;;;;;;;1042015;28;4050;-54
2022/12/30 02:21:12;;;;;;;;;;;;;;;;;;1043255;28;3963;-52
2022/12/30 02:21:45;;;;;;;;;;;;;;;;;;1042538;28;3995;-53
2022/12/30 02:22:38;;;;;;;;;;;;;;;;;;1041474;28;2960;-49
2022/12/30 02:23:24;;;;;;;;;;;;;;;;;;1042367;28;3940;-52
2022/12/30 02:24:13;;;;;;;;;;;;;;;;;;1044224;28;4203;-53
2022/12/30 02:25:02;;;;;;;;;;;;;;;;;;1044585;28;4052;-53
2022/12/30 02:25:51;;;;;;;;;;;;;;;;;;1042210;28;2811;-57
2022/12/30 02:26:24;;;;;;;;;;;;;;;;;;1041710;28;4123;-51
2022/12/30 02:27:06;;;;;;;;;;;;;;;;;;1041500;28;3781;-54
2022/12/30 02:27:45;;;;;;;;;;;;;;;;;;1045588;28;2163;-55
2022/12/30 02:28:16;;;;;;;;;;;;;;;;;;1042467;28;5306;-53
2022/12/30 02:28:58;;;;;;;;;;;;;;;;;;1042159;28;3866;-56
2022/12/30 02:29:46;;;;;;;;;;;;;;;;;;1044480;28;1689;-52
2022/12/30 02:30:19;;;;;;;;;;;;;;;;;;1037987;28;4122;-54
2022/12/30 02:31:08;;;;;;;;;;;;;;;;;;1039921;28;3937;-51
2022/12/30 02:31:49;;;;;;;;;;;;;;;;;;1041274;28;3817;-51
2022/12/30 02:32:19;;;;;;;;;;;;;;;;;;1043070;28;2977;-53
2022/12/30 02:32:52;;;;;;;;;;;;;;;;;;1042699;28;4014;-53
2022/12/30 02:33:29;;;;;;;;;;;;;;;;;;1042309;28;2832;-54
2022/12/30 02:34:05;;;;;;;;;;;;;;;;;;1042123;28;3872;-52
2022/12/30 02:34:47;;;;;;;;;;;;;;;;;;1041736;28;1811;-55
2022/12/30 02:35:36;;;;;;;;;;;;;;;;;;1044934;28;3812;-56
2022/12/30 02:36:27;;;;;;;;;;;;;;;;;;1045772;28;4356;-52
2022/12/30 02:36:57;;;;;;;;;;;;;;;;;;1045071;28;4400;-55
2022/12/30 02:37:34;;;;;;;;;;;;;;;;;;1043594;28;2845;-54
2022/12/30 02:38:04;;;;;;;;;;;;;;;;;;1042191;28;4357;-52
2022/12/30 02:38:46;;;;;;;;;;;;;;;;;;1043750;28;2355;-49
2022/12/30 02:39:35;;;;;;;;;;;;;;;;;;1044407;28;3856;-54
2022/12/30 02:40:14;;;;;;;;;;;;;;;;;;1044225;28;4118;-54
2022/12/30 02:44:52;;;;;;;;;;;;;;;;;;1030372;28;4067;-54
2022/12/30 02:45:28;;;;;;;;;;;;;;;;;;1037028;28;3036;-51
2022/12/30 02:46:03;;;;;;;;;;;;;;;;;;1042818;28;3757;-54
2022/12/30 02:46:36;;;;;;;;;;;;;;;;;;1043188;28;2473;-55
2022/12/30 02:47:10;;;;;;;;;;;;;;;;;;1045424;28;3956;-50
2022/12/30 02:47:43;;;;;;;;;;;;;;;;;;1045300;28;4418;-55
2022/12/30 02:48:16;;;;;;;;;;;;;;;;;;1042917;28;2076;-52
2022/12/30 02:48:47;;;;;;;;;;;;;;;;;;1043163;28;4007;-50
2022/12/30 02:49:18;;;;;;;;;;;;;;;;;;1042989;28;1678;-53
2022/12/30 02:52:28;;;;;;;;;;;;;;;;;;1044678;28;2080;-55
2022/12/30 02:52:58;;;;;;;;;;;;;;;;;;1043899;28;3957;-48
2022/12/30 02:53:31;;;;;;;;;;;;;;;;;;1043503;28;2884;-54
2022/12/30 02:54:01;;;;;;;;;;;;;;;;;;1043188;28;3868;-49
2022/12/30 02:54:31;;;;;;;;;;;;;;;;;;1043373;28;2086;-56
2022/12/30 02:55:02;;;;;;;;;;;;;;;;;;1045199;28;3997;-50
2022/12/30 02:55:32;;;;;;;;;;;;;;;;;;1045563;28;2811;-51
2022/12/30 02:56:03;;;;;;;;;;;;;;;;;;1043177;28;3843;-55
2022/12/30 02:56:33;;;;;;;;;;;;;;;;;;1043662;28;2220;-50
2022/12/30 02:57:21;;;;;;;;;;;;;;;;;;1042592;28;3793;-53
2022/12/30 02:57:51;;;;;;;;;;;;;;;;;;1044643;28;3869;-55
2022/12/30 02:58:23;;;;;;;;;;;;;;;;;;1046941;28;1705;-54
2022/12/30 03:03:57;;;;;;;;;;;;;;;;;;1043578;28;4056;-53
2022/12/30 03:03:58;;;;;;;;;;;;;;;;;;1042363;28;3923;-55
2022/12/30 03:04:29;;;;;;;;;;;;;;;;;;1044628;28;2785;-53
2022/12/30 03:05:22;;;;;;;;;;;;;;;;;;1044956;28;3961;-52
2022/12/30 03:06:15;;;;;;;;;;;;;;;;;;1038003;28;4325;-53
2022/12/30 03:07:05;;;;;;;;;;;;;;;;;;1042833;28;3977;-54
2022/12/30 03:07:58;;;;;;;;;;;;;;;;;;1041974;28;2981;-54
2022/12/30 03:08:35;;;;;;;;;;;;;;;;;;1032778;28;4000;-53
2022/12/30 03:09:16;;;;;;;;;;;;;;;;;;1043090;28;5196;-53
2022/12/30 03:11:13;;;;;;;;;;;;;;;;;;1042400;28;3951;-55
2022/12/30 03:12:04;;;;;;;;;;;;;;;;;;1046038;28;4380;-54
2022/12/30 03:12:39;;;;;;;;;;;;;;;;;;1047357;28;2103;-51
2022/12/30 03:13:18;;;;;;;;;;;;;;;;;;1048154;28;3818;-53
2022/12/30 03:13:48;;;;;;;;;;;;;;;;;;1045679;28;4032;-50
2022/12/30 03:14:28;;;;;;;;;;;;;;;;;;1045483;28;2896;-55
2022/12/30 03:15:00;;;;;;;;;;;;;;;;;;1047521;28;3777;-53
2022/12/30 03:15:43;;;;;;;;;;;;;;;;;;1047039;28;2964;-52
2022/12/30 03:16:23;;;;;;;;;;;;;;;;;;1047730;28;4066;-53
2022/12/30 03:16:56;;;;;;;;;;;;;;;;;;1047927;28;4239;-54
2022/12/30 03:17:31;;;;;;;;;;;;;;;;;;1046710;28;2756;-52
2022/12/30 03:18:02;;;;;;;;;;;;;;;;;;1046535;28;3953;-53
2022/12/30 03:18:32;;;;;;;;;;;;;;;;;;1047235;28;2957;-53
2022/12/30 03:19:05;;;;;;;;;;;;;;;;;;1047344;28;3920;-52
2022/12/30 03:19:38;;;;;;;;;;;;;;;;;;1049891;28;2871;-56
2022/12/30 03:20:14;;;;;;;;;;;;;;;;;;1046383;28;3851;-54
2022/12/30 03:20:45;;;;;;;;;;;;;;;;;;1048041;28;3980;-54
2022/12/30 03:21:16;;;;;;;;;;;;;;;;;;1048701;28;2309;-52
2022/12/30 03:21:48;;;;;;;;;;;;;;;;;;1045349;28;3815;-52
2022/12/30 03:27:21;;;;;;;;;;;;;;;;;;1047164;28;3695;-52
2022/12/30 03:27:53;;;;;;;;;;;;;;;;;;1048696;28;4030;-53
2022/12/30 03:28:25;;;;;;;;;;;;;;;;;;1046818;28;2247;-52
2022/12/30 03:28:56;;;;;;;;;;;;;;;;;;1048951;28;3801;-49
2022/12/30 03:29:28;;;;;;;;;;;;;;;;;;1047158;28;2958;-54
2022/12/30 03:30:01;;;;;;;;;;;;;;;;;;1050401;28;4024;-52
2022/12/30 03:30:33;;;;;;;;;;;;;;;;;;1046933;28;2885;-51
2022/12/30 03:31:06;;;;;;;;;;;;;;;;;;1047899;28;3860;-55
2022/12/30 03:31:36;;;;;;;;;;;;;;;;;;1047614;28;2651;-54
2022/12/30 03:32:08;;;;;;;;;;;;;;;;;;1046050;28;4221;-50
2022/12/30 03:32:39;;;;;;;;;;;;;;;;;;1046112;28;3793;-51
2022/12/30 03:33:09;;;;;;;;;;;;;;;;;;1049926;28;2595;-52
2022/12/30 03:33:40;;;;;;;;;;;;;;;;;;1049908;28;3987;-55
2022/12/30 03:34:10;;;;;;;;;;;;;;;;;;1050051;28;2602;-50
2022/12/30 03:34:41;;;;;;;;;;;;;;;;;;1042581;28;3917;-54
2022/12/30 03:35:12;;;;;;;;;;;;;;;;;;1043403;28;2554;-51
2022/12/30 03:35:47;;;;;;;;;;;;;;;;;;1042832;28;3993;-50
2022/12/30 03:36:20;;;;;;;;;;;;;;;;;;1045785;28;2974;-51
2022/12/30 03:36:53;;;;;;;;;;;;;;;;;;1048388;28;3976;-54
2022/12/30 03:37:26;;;;;;;;;;;;;;;;;;1048694;28;1972;-54
2022/12/30 03:37:56;;;;;;;;;;;;;;;;;;1046727;28;3842;-52
2022/12/30 03:38:29;;;;;;;;;;;;;;;;;;1046910;28;2701;-52
2022/12/30 03:39:06;;;;;;;;;;;;;;;;;;1047436;28;3790;-50
2022/12/30 03:39:39;;;;;;;;;;;;;;;;;;1048619;28;3093;-51
2022/12/30 03:40:35;;;;;;;;;;;;;;;;;;1048613;28;3632;-54
2022/12/30 03:41:13;;;;;;;;;;;;;;;;;;1046450;28;3966;-57
2022/12/30 03:41:46;;;;;;;;;;;;;;;;;;1047532;28;4037;-56
2022/12/30 03:42:16;;;;;;;;;;;;;;;;;;1048311;28;2214;-54
2022/12/30 03:42:48;;;;;;;;;;;;;;;;;;1047046;28;4021;-55
2022/12/30 03:43:18;;;;;;;;;;;;;;;;;;1047689;28;1796;-52
2022/12/30 03:43:49;;;;;;;;;;;;;;;;;;1047286;28;4118;-52
2022/12/30 03:44:20;;;;;;;;;;;;;;;;;;1046428;28;2748;-53
2022/12/30 03:44:50;;;;;;;;;;;;;;;;;;1042851;28;3836;-53
2022/12/30 03:45:21;;;;;;;;;;;;;;;;;;1044273;28;3007;-55
2022/12/30 03:45:51;;;;;;;;;;;;;;;;;;1045690;28;4062;-53
2022/12/30 03:46:26;;;;;;;;;;;;;;;;;;1045446;28;2010;-54
2022/12/30 03:46:56;;;;;;;;;;;;;;;;;;1048251;28;3927;-52
2022/12/30 03:47:27;;;;;;;;;;;;;;;;;;1046985;28;2770;-48
2022/12/30 03:47:57;;;;;;;;;;;;;;;;;;1048718;28;4030;-50
2022/12/30 03:48:27;;;;;;;;;;;;;;;;;;1049502;28;2895;-51
2022/12/30 03:48:58;;;;;;;;;;;;;;;;;;1047816;28;4020;-53
2022/12/30 03:49:28;;;;;;;;;;;;;;;;;;1048395;28;2764;-53
2022/12/30 03:49:58;;;;;;;;;;;;;;;;;;1048077;28;4026;-55
2022/12/30 03:50:28;;;;;;;;;;;;;;;;;;1048322;28;2590;-53
2022/12/30 03:50:59;;;;;;;;;;;;;;;;;;1046252;28;4065;-56
2022/12/30 03:51:29;;;;;;;;;;;;;;;;;;1050066;28;2924;-52
2022/12/30 03:51:59;;;;;;;;;;;;;;;;;;1048274;28;4414;-52
2022/12/30 03:52:29;;;;;;;;;;;;;;;;;;1048545;28;3021;-50
2022/12/30 03:53:00;;;;;;;;;;;;;;;;;;1046506;28;3918;-56
2022/12/30 03:53:30;;;;;;;;;;;;;;;;;;1048329;28;2421;-55
2022/12/30 03:54:00;;;;;;;;;;;;;;;;;;1047735;28;4220;-54
2022/12/30 03:54:30;;;;;;;;;;;;;;;;;;1045990;28;2979;-56
2022/12/30 03:55:01;;;;;;;;;;;;;;;;;;1046590;28;4052;-54
2022/12/30 03:55:31;;;;;;;;;;;;;;;;;;1048221;28;2328;-50
2022/12/30 03:56:01;;;;;;;;;;;;;;;;;;1048422;28;3947;-51
2022/12/30 03:56:32;;;;;;;;;;;;;;;;;;1047900;28;2822;-50
2022/12/30 03:57:02;;;;;;;;;;;;;;;;;;1048163;28;3777;-50
2022/12/30 03:57:32;;;;;;;;;;;;;;;;;;1048190;28;2163;-56
2022/12/30 03:58:02;;;;;;;;;;;;;;;;;;1048497;28;4053;-53
2022/12/30 03:58:33;;;;;;;;;;;;;;;;;;1046945;28;2696;-50
2022/12/30 03:59:03;;;;;;;;;;;;;;;;;;1049610;28;4012;-54
2022/12/30 03:59:33;;;;;;;;;;;;;;;;;;1049076;28;4104;-56
2022/12/30 04:00:10;;;;;;;;;;;;;;;;;;1047696;28;3905;-51
2022/12/30 04:00:40;;;;;;;;;;;;;;;;;;1046809;28;4113;-55
2022/12/30 04:01:11;;;;;;;;;;;;;;;;;;1048110;28;1645;-54
2022/12/30 04:01:41;;;;;;;;;;;;;;;;;;1047288;28;3867;-52
2022/12/30 04:02:11;;;;;;;;;;;;;;;;;;1047885;28;2771;-55
2022/12/30 04:02:41;;;;;;;;;;;;;;;;;;1046923;28;3906;-53
2022/12/30 04:03:12;;;;;;;;;;;;;;;;;;1047278;28;1840;-55
2022/12/30 04:03:42;;;;;;;;;;;;;;;;;;1048614;28;3871;-55
2022/12/30 04:04:12;;;;;;;;;;;;;;;;;;1049716;28;2926;-51
2022/12/30 04:04:43;;;;;;;;;;;;;;;;;;1048658;28;3954;-53
2022/12/30 04:05:13;;;;;;;;;;;;;;;;;;1047347;28;2972;-52
2022/12/30 04:05:43;;;;;;;;;;;;;;;;;;1049674;28;3875;-54
2022/12/30 04:06:14;;;;;;;;;;;;;;;;;;1048825;28;2911;-55
2022/12/30 04:06:44;;;;;;;;;;;;;;;;;;1048119;28;4317;-54
2022/12/30 04:07:14;;;;;;;;;;;;;;;;;;1048683;28;2052;-52
2022/12/30 04:07:45;;;;;;;;;;;;;;;;;;1049091;28;3870;-53
2022/12/30 04:08:15;;;;;;;;;;;;;;;;;;1047824;28;2009;-53
2022/12/30 04:08:45;;;;;;;;;;;;;;;;;;1047455;28;3960;-55
2022/12/30 04:09:15;;;;;;;;;;;;;;;;;;1049521;28;2398;-56
2022/12/30 04:09:46;;;;;;;;;;;;;;;;;;1046822;28;4066;-55
2022/12/30 04:10:17;;;;;;;;;;;;;;;;;;1048422;28;2965;-53
2022/12/30 04:11:00;;;;;;;;;;;;;;;;;;1046476;28;4035;-54
2022/12/30 04:11:38;;;;;;;;;;;;;;;;;;1046482;28;3784;-51
2022/12/30 04:12:08;;;;;;;;;;;;;;;;;;1050372;28;2210;-52
2022/12/30 04:12:39;;;;;;;;;;;;;;;;;;1049660;28;4166;-53
2022/12/30 04:13:09;;;;;;;;;;;;;;;;;;1048418;28;2933;-55
2022/12/30 04:13:40;;;;;;;;;;;;;;;;;;1047527;28;3882;-56
2022/12/30 04:14:10;;;;;;;;;;;;;;;;;;1050421;28;2095;-54
2022/12/30 04:14:41;;;;;;;;;;;;;;;;;;1047868;28;4357;-50
2022/12/30 04:15:11;;;;;;;;;;;;;;;;;;1047229;28;2951;-51
2022/12/30 04:15:41;;;;;;;;;;;;;;;;;;1048377;28;3870;-55
2022/12/30 04:16:12;;;;;;;;;;;;;;;;;;1049183;28;1837;-54
2022/12/30 04:16:42;;;;;;;;;;;;;;;;;;1048167;28;3787;-53
2022/12/30 04:17:12;;;;;;;;;;;;;;;;;;1049370;28;2773;-54
2022/12/30 04:17:43;;;;;;;;;;;;;;;;;;1048869;28;4208;-56
2022/12/30 04:18:13;;;;;;;;;;;;;;;;;;1050014;28;2060;-52
2022/12/30 04:18:43;;;;;;;;;;;;;;;;;;1046708;28;3990;-53
2022/12/30 04:19:13;;;;;;;;;;;;;;;;;;1046788;28;1781;-49
2022/12/30 04:19:44;;;;;;;;;;;;;;;;;;1047298;28;4080;-52
2022/12/30 04:20:16;;;;;;;;;;;;;;;;;;1050383;28;2878;-55
2022/12/30 04:20:46;;;;;;;;;;;;;;;;;;1047938;28;4099;-55
2022/12/30 04:21:16;;;;;;;;;;;;;;;;;;1048294;28;2856;-55
2022/12/30 04:21:47;;;;;;;;;;;;;;;;;;1048037;28;4045;-55
2022/12/30 04:22:17;;;;;;;;;;;;;;;;;;1049032;28;2238;-54
2022/12/30 04:22:47;;;;;;;;;;;;;;;;;;1048091;28;4149;-53
2022/12/30 04:23:18;;;;;;;;;;;;;;;;;;1046442;28;2007;-53
2022/12/30 04:23:48;;;;;;;;;;;;;;;;;;1041839;28;3947;-53
2022/12/30 04:24:18;;;;;;;;;;;;;;;;;;1045516;28;2353;-54
2022/12/30 04:24:48;;;;;;;;;;;;;;;;;;1044167;28;3895;-52
2022/12/30 04:25:19;;;;;;;;;;;;;;;;;;1048834;28;2816;-53
2022/12/30 04:25:49;;;;;;;;;;;;;;;;;;1047325;28;4061;-56
2022/12/30 04:26:19;;;;;;;;;;;;;;;;;;1048075;28;2982;-56
2022/12/30 04:26:49;;;;;;;;;;;;;;;;;;1046245;28;3960;-52
2022/12/30 04:27:20;;;;;;;;;;;;;;;;;;1049759;28;2047;-55
2022/12/30 04:27:50;;;;;;;;;;;;;;;;;;1047850;28;4475;-52
2022/12/30 04:28:20;;;;;;;;;;;;;;;;;;1046694;28;2963;-52
2022/12/30 04:28:51;;;;;;;;;;;;;;;;;;1047391;28;3930;-55
2022/12/30 04:29:21;;;;;;;;;;;;;;;;;;1049517;28;1816;-56
2022/12/30 04:29:51;;;;;;;;;;;;;;;;;;1046565;28;4569;-52
2022/12/30 04:30:21;;;;;;;;;;;;;;;;;;1048861;28;3131;-55
2022/12/30 04:30:51;;;;;;;;;;;;;;;;;;1050143;28;4019;-54
2022/12/30 04:31:22;;;;;;;;;;;;;;;;;;1049874;28;2054;-52
2022/12/30 04:31:52;;;;;;;;;;;;;;;;;;1044671;28;4038;-56
2022/12/30 04:32:22;;;;;;;;;;;;;;;;;;1044531;28;2407;-56
2022/12/30 04:32:52;;;;;;;;;;;;;;;;;;1044916;28;4004;-54
2022/12/30 04:33:23;;;;;;;;;;;;;;;;;;1046651;28;1764;-51
2022/12/30 04:33:53;;;;;;;;;;;;;;;;;;1044173;28;4027;-54
2022/12/30 04:34:23;;;;;;;;;;;;;;;;;;1040297;28;1878;-55
2022/12/30 04:34:54;;;;;;;;;;;;;;;;;;1038307;28;3954;-52
2022/12/30 04:35:24;;;;;;;;;;;;;;;;;;1039857;28;2694;-52
2022/12/30 04:35:54;;;;;;;;;;;;;;;;;;1044574;28;3774;-51
2022/12/30 04:36:24;;;;;;;;;;;;;;;;;;1049244;28;2821;-53
2022/12/30 04:36:55;;;;;;;;;;;;;;;;;;1049604;28;3769;-53
2022/12/30 04:37:25;;;;;;;;;;;;;;;;;;1048691;28;2099;-54
2022/12/30 04:37:55;;;;;;;;;;;;;;;;;;1046773;28;3989;-53